createdAt,value
2023-05-01T00:02:22.406Z,11.53
2023-05-01T00:04:48.931Z,11.47
2023-05-01T00:07:30.441Z,11.42
2023-05-01T00:08:40.426Z,11.30
2023-05-01T00:11:05.420Z,11.33
2023-05-01T00:13:30.064Z,11.22
2023-05-01T00:15:54.301Z,11.19
2023-05-01T00:18:20.953Z,11.12
2023-05-01T00:20:46.540Z,11.05
2023-05-01T00:23:12.448Z,10.97
2023-05-01T00:25:37.246Z,10.99
2023-05-01T00:28:03.675Z,10.99
2023-05-01T00:30:28.863Z,10.98
2023-05-01T00:32:54.437Z,11.04
2023-05-01T00:34:05.043Z,10.97
2023-05-01T00:36:50.130Z,11.16
2023-05-01T00:37:59.956Z,11.09
2023-05-01T00:40:24.893Z,11.29
2023-05-01T00:41:35.163Z,11.21
2023-05-01T00:44:00.714Z,11.37
2023-05-01T00:46:26.411Z,11.43
2023-05-01T00:48:53.622Z,11.47
2023-05-01T00:50:04.340Z,11.39
2023-05-01T00:52:29.521Z,11.51
2023-05-01T00:53:41.961Z,11.38
2023-05-01T00:56:33.346Z,11.51
2023-05-01T00:57:42.734Z,11.34
2023-05-01T00:58:52.971Z,11.25
2023-05-01T01:01:17.032Z,11.22
2023-05-01T01:03:43.632Z,11.06
2023-05-01T01:06:25.071Z,11.01
2023-05-01T01:09:23.827Z,10.94
2023-05-01T01:13:36.144Z,10.74
2023-05-01T01:15:06.706Z,10.57
2023-05-01T01:18:11.723Z,10.57
2023-05-01T01:19:30.271Z,10.40
2023-05-01T01:22:13.885Z,10.39
2023-05-01T01:25:40.459Z,10.27
2023-05-01T01:28:38.253Z,10.26
2023-05-01T01:31:20.883Z,10.24
2023-05-01T01:35:37.064Z,10.31
2023-05-01T01:40:06.265Z,10.30
2023-05-01T01:45:27.951Z,10.29
2023-05-01T01:47:55.748Z,10.30
2023-05-01T01:50:27.955Z,10.34
2023-05-01T01:53:00.204Z,10.37
2023-05-01T01:55:32.236Z,10.42
2023-05-01T01:57:59.302Z,10.47
2023-05-01T01:59:09.665Z,10.39
2023-05-01T02:01:39.952Z,10.56
2023-05-01T02:04:08.715Z,10.56
2023-05-01T02:06:40.051Z,10.63
2023-05-01T02:09:10.065Z,10.67
2023-05-01T02:11:39.677Z,10.71
2023-05-01T02:14:08.924Z,10.74
2023-05-01T02:16:36.998Z,10.71
2023-05-01T02:19:23.914Z,10.68
2023-05-01T02:20:33.964Z,10.52
2023-05-01T02:23:00.778Z,10.67
2023-05-01T02:25:30.563Z,10.66
2023-05-01T02:26:43.749Z,10.56
2023-05-01T02:29:18.574Z,10.67
2023-05-01T02:31:44.201Z,10.66
2023-05-01T02:34:09.873Z,10.61
2023-05-01T02:36:35.453Z,10.56
2023-05-01T02:39:05.356Z,10.55
2023-05-01T02:41:35.064Z,10.51
2023-05-01T02:44:05.924Z,10.49
2023-05-01T02:46:38.315Z,10.52
2023-05-01T02:49:12.948Z,10.46
2023-05-01T02:50:27.942Z,10.31
2023-05-01T02:51:46.039Z,10.33
2023-05-01T02:54:45.263Z,10.30
2023-05-01T02:55:55.497Z,10.12
2023-05-01T02:58:24.492Z,10.23
2023-05-01T02:59:34.528Z,10.18
2023-05-01T03:00:51.707Z,10.24
2023-05-01T03:03:16.740Z,10.44
2023-05-01T03:05:42.835Z,10.49
2023-05-01T03:08:08.547Z,10.54
2023-05-01T03:10:33.262Z,10.48
2023-05-01T03:11:44.648Z,10.36
2023-05-01T03:12:53.832Z,10.36
2023-05-01T03:15:19.179Z,10.45
2023-05-01T03:16:28.987Z,10.39
2023-05-01T03:18:54.001Z,10.60
2023-05-01T03:20:06.095Z,10.50
2023-05-01T03:21:15.690Z,10.52
2023-05-01T03:22:25.372Z,10.62
2023-05-01T03:23:34.157Z,10.58
2023-05-01T03:24:44.840Z,10.73
2023-05-01T03:27:10.442Z,11.20
2023-05-01T03:29:39.737Z,11.70
2023-05-01T03:32:07.646Z,12.39
2023-05-01T03:34:34.641Z,13.06
2023-05-01T03:35:44.308Z,13.11
2023-05-01T03:38:09.451Z,13.67
2023-05-01T03:39:26.867Z,13.77
2023-05-01T03:42:44.864Z,14.74
2023-05-01T03:45:11.774Z,15.42
2023-05-01T03:47:59.013Z,15.87
2023-05-01T03:50:23.853Z,16.31
2023-05-01T03:52:53.825Z,16.75
2023-05-01T03:54:03.473Z,16.83
2023-05-01T03:56:31.431Z,17.25
2023-05-01T03:59:16.904Z,16.66
2023-05-01T04:27:50.055Z,14.84
2023-05-01T04:30:17.072Z,15.06
2023-05-01T04:31:26.147Z,14.98
2023-05-01T04:33:52.316Z,15.09
2023-05-01T04:36:18.003Z,15.39
2023-05-01T04:38:44.029Z,15.30
2023-05-01T04:41:11.511Z,15.69
2023-05-01T04:42:21.186Z,15.61
2023-05-01T04:43:30.678Z,15.54
2023-05-01T04:45:55.950Z,15.35
2023-05-01T04:47:06.241Z,15.36
2023-05-01T04:48:16.484Z,15.38
2023-05-01T04:49:26.083Z,15.48
2023-05-01T04:51:50.862Z,15.73
2023-05-01T04:54:15.312Z,15.97
2023-05-01T04:55:25.523Z,15.86
2023-05-01T04:58:03.115Z,16.05
2023-05-01T05:00:28.185Z,16.05
2023-05-01T05:02:54.170Z,15.65
2023-05-01T05:05:19.273Z,15.49
2023-05-01T05:07:47.564Z,15.26
2023-05-01T05:10:32.789Z,15.56
2023-05-01T05:13:41.658Z,15.88
2023-05-01T05:16:07.708Z,15.66
2023-05-01T05:18:31.915Z,15.77
2023-05-01T05:20:56.813Z,15.89
2023-05-01T05:22:06.953Z,15.55
2023-05-01T05:24:32.467Z,16.03
2023-05-01T05:25:41.969Z,15.99
2023-05-01T05:26:52.063Z,15.90
2023-05-01T05:28:01.295Z,15.76
2023-05-01T05:29:10.587Z,16.06
2023-05-01T05:31:35.258Z,15.95
2023-05-01T05:32:45.133Z,15.94
2023-05-01T05:35:09.036Z,16.33
2023-05-01T05:37:33.843Z,16.37
2023-05-01T05:39:58.832Z,16.10
2023-05-01T05:42:23.271Z,16.10
2023-05-01T05:44:47.641Z,15.98
2023-05-01T05:47:14.175Z,15.98
2023-05-01T05:49:38.339Z,15.26
2023-05-01T05:50:50.114Z,15.54
2023-05-01T05:53:16.760Z,15.99
2023-05-01T05:54:26.627Z,16.06
2023-05-01T05:55:35.627Z,16.24
2023-05-01T05:56:48.092Z,16.25
2023-05-01T05:58:01.974Z,16.17
2023-05-01T05:59:11.257Z,16.35
2023-05-01T06:00:20.381Z,16.13
2023-05-01T06:02:45.088Z,16.45
2023-05-01T06:03:54.773Z,16.20
2023-05-01T06:06:22.755Z,15.84
2023-05-01T06:07:33.220Z,15.87
2023-05-01T06:10:03.549Z,15.99
2023-05-01T06:12:29.459Z,15.66
2023-05-01T06:13:38.593Z,15.45
2023-05-01T06:16:04.623Z,15.83
2023-05-01T06:18:30.431Z,15.75
2023-05-01T06:19:40.100Z,15.59
2023-05-01T06:22:26.536Z,15.62
2023-05-01T06:23:42.690Z,15.41
2023-05-01T06:25:12.790Z,15.89
2023-05-01T06:27:38.356Z,15.55
2023-05-01T06:30:02.779Z,15.91
2023-05-01T06:32:28.716Z,16.22
2023-05-01T06:33:41.244Z,16.31
2023-05-01T06:34:53.696Z,16.39
2023-05-01T06:37:17.723Z,16.32
2023-05-01T06:39:43.792Z,16.27
2023-05-01T06:42:12.188Z,15.83
2023-05-01T06:44:36.341Z,16.17
2023-05-01T06:47:01.133Z,16.12
2023-05-01T06:49:25.258Z,16.33
2023-05-01T06:51:49.820Z,16.61
2023-05-01T06:54:22.708Z,16.85
2023-05-01T06:56:48.886Z,17.05
2023-05-01T06:59:12.763Z,17.10
2023-05-01T07:01:38.990Z,17.02
2023-05-01T07:04:03.568Z,16.92
2023-05-01T07:05:13.951Z,17.05
2023-05-01T07:06:24.047Z,17.15
2023-05-01T07:08:49.913Z,17.41
2023-05-01T07:11:13.380Z,16.95
2023-05-01T07:13:38.997Z,16.65
2023-05-01T07:14:48.511Z,16.36
2023-05-01T07:17:12.887Z,16.53
2023-05-01T07:18:22.004Z,16.18
2023-05-01T07:19:31.106Z,16.04
2023-05-01T07:20:42.899Z,16.15
2023-05-01T07:23:09.600Z,15.88
2023-05-01T07:25:33.958Z,15.23
2023-05-01T07:28:19.011Z,15.25
2023-05-01T07:30:42.525Z,15.73
2023-05-01T07:31:52.226Z,15.60
2023-05-01T07:33:01.668Z,15.74
2023-05-01T07:35:28.271Z,16.01
2023-05-01T07:36:39.027Z,15.62
2023-05-01T07:39:10.669Z,15.36
2023-05-01T07:41:36.008Z,15.56
2023-05-01T07:44:00.960Z,15.79
2023-05-01T07:45:10.640Z,15.67
2023-05-01T07:47:35.957Z,15.70
2023-05-01T07:50:01.547Z,15.90
2023-05-01T07:51:11.130Z,15.85
2023-05-01T07:52:21.314Z,15.80
2023-05-01T07:53:30.618Z,15.75
2023-05-01T07:56:07.116Z,15.88
2023-05-01T07:57:16.662Z,15.70
2023-05-01T07:58:26.551Z,15.67
2023-05-01T07:59:35.466Z,15.63
2023-05-01T08:02:01.233Z,15.22
2023-05-01T08:04:27.474Z,14.74
2023-05-01T08:05:38.317Z,14.46
2023-05-01T08:06:47.164Z,14.79
2023-05-01T08:07:56.378Z,14.83
2023-05-01T08:10:21.378Z,15.03
2023-05-01T08:11:33.414Z,15.03
2023-05-01T08:12:43.278Z,15.08
2023-05-01T08:13:59.172Z,14.94
2023-05-01T08:16:24.447Z,15.14
2023-05-01T08:18:51.205Z,15.28
2023-05-01T08:21:16.228Z,15.16
2023-05-01T08:22:24.941Z,15.03
2023-05-01T08:24:51.377Z,14.62
2023-05-01T08:27:35.163Z,14.52
2023-05-01T08:28:43.855Z,14.63
2023-05-01T08:29:52.957Z,14.54
2023-05-01T08:31:04.871Z,14.73
2023-05-01T08:33:31.921Z,15.04
2023-05-01T08:35:56.632Z,14.92
2023-05-01T08:38:21.986Z,15.15
2023-05-01T08:39:32.614Z,15.13
2023-05-01T08:40:43.444Z,15.10
2023-05-01T08:41:53.331Z,15.02
2023-05-01T08:44:19.322Z,15.29
2023-05-01T08:45:31.694Z,15.10
2023-05-01T08:48:12.648Z,15.38
2023-05-01T08:49:24.713Z,15.16
2023-05-01T08:51:57.361Z,15.38
2023-05-01T08:54:24.075Z,15.35
2023-05-01T08:56:53.009Z,15.49
2023-05-01T08:59:24.569Z,15.12
2023-05-01T09:01:52.836Z,15.04
2023-05-01T09:04:21.063Z,15.17
2023-05-01T09:06:49.433Z,15.32
2023-05-01T09:09:16.879Z,15.34
2023-05-01T09:11:44.467Z,15.13
2023-05-01T09:14:17.639Z,15.39
2023-05-01T09:16:43.901Z,15.20
2023-05-01T09:19:11.214Z,14.93
2023-05-01T09:21:42.816Z,15.12
2023-05-01T09:24:08.302Z,15.05
2023-05-01T09:26:35.083Z,15.09
2023-05-01T09:29:05.644Z,15.21
2023-05-01T09:31:49.824Z,15.32
2023-05-01T09:34:25.587Z,15.36
2023-05-01T09:37:14.721Z,15.28
2023-05-01T09:39:42.052Z,15.00
2023-05-01T09:42:27.865Z,15.11
2023-05-01T09:44:54.213Z,15.09
2023-05-01T09:47:27.061Z,15.28
2023-05-01T09:49:53.126Z,15.33
2023-05-01T09:52:19.228Z,15.49
2023-05-01T09:55:17.245Z,15.49
2023-05-01T09:56:28.650Z,15.45
2023-05-01T09:58:55.923Z,15.74
2023-05-01T10:01:45.491Z,15.77
2023-05-01T10:04:11.340Z,15.81
2023-05-01T10:05:20.408Z,15.71
2023-05-01T10:07:59.544Z,15.69
2023-05-01T10:10:29.271Z,15.67
2023-05-01T10:13:15.155Z,15.61
2023-05-01T10:15:41.670Z,15.66
2023-05-01T10:18:09.827Z,15.66
2023-05-01T10:19:19.581Z,15.56
2023-05-01T10:21:44.334Z,15.75
2023-05-01T10:24:10.544Z,15.80
2023-05-01T10:26:37.143Z,15.76
2023-05-01T10:29:04.193Z,15.72
2023-05-01T10:31:32.475Z,15.82
2023-05-01T10:34:02.258Z,15.66
2023-05-01T10:36:42.460Z,15.70
2023-05-01T10:39:29.909Z,15.76
2023-05-01T10:42:17.272Z,15.71
2023-05-01T10:44:46.212Z,15.82
2023-05-01T10:46:26.511Z,15.65
2023-05-01T10:48:57.499Z,15.29
2023-05-01T10:52:03.668Z,15.36
2023-05-01T10:53:16.369Z,15.30
2023-05-01T10:55:50.180Z,15.48
2023-05-01T10:57:02.871Z,15.47
2023-05-01T11:00:03.561Z,15.56
2023-05-01T11:01:42.210Z,15.32
2023-05-01T11:04:23.836Z,15.23
2023-05-01T11:07:17.998Z,15.41
2023-05-01T11:08:36.836Z,15.37
2023-05-01T11:09:51.079Z,15.41
2023-05-01T11:12:51.873Z,15.55
2023-05-01T11:15:31.996Z,15.61
2023-05-01T11:18:02.887Z,15.75
2023-05-01T11:20:47.854Z,15.65
2023-05-01T11:23:16.463Z,15.65
2023-05-01T11:24:33.739Z,15.49
2023-05-01T11:26:59.768Z,15.69
2023-05-01T11:29:27.051Z,15.72
2023-05-01T11:31:57.239Z,15.70
2023-05-01T11:33:10.446Z,15.66
2023-05-01T11:35:38.860Z,15.73
2023-05-01T11:36:53.400Z,15.64
2023-05-01T11:39:43.000Z,15.78
2023-05-01T11:40:59.666Z,15.73
2023-05-01T11:43:27.218Z,15.81
2023-05-01T11:44:37.189Z,15.57
2023-05-01T11:47:26.499Z,15.82
2023-05-01T11:49:53.078Z,15.86
2023-05-01T11:52:21.579Z,15.80
2023-05-01T11:53:32.138Z,15.77
2023-05-01T11:54:49.163Z,15.77
2023-05-01T11:57:15.274Z,15.91
2023-05-01T11:58:32.765Z,15.83
2023-05-01T12:01:00.578Z,15.91
2023-05-01T12:03:34.189Z,15.94
2023-05-01T12:05:58.254Z,15.94
2023-05-01T12:08:26.717Z,16.02
2023-05-01T12:10:55.385Z,16.07
2023-05-01T12:13:22.642Z,16.10
2023-05-01T12:14:31.753Z,16.02
2023-05-01T12:17:04.179Z,16.04
2023-05-01T12:18:14.589Z,15.98
2023-05-01T12:19:24.076Z,15.99
2023-05-01T12:20:42.203Z,16.02
2023-05-01T12:23:37.867Z,16.04
2023-05-01T12:26:22.709Z,16.17
2023-05-01T12:29:01.036Z,16.15
2023-05-01T12:31:27.279Z,16.21
2023-05-01T12:35:16.766Z,16.29
2023-05-01T12:36:31.458Z,16.17
2023-05-01T12:37:41.634Z,16.09
2023-05-01T12:39:09.173Z,15.85
2023-05-01T12:41:44.902Z,15.91
2023-05-01T12:44:22.016Z,15.60
2023-05-01T12:46:58.333Z,15.60
2023-05-01T12:48:16.664Z,15.44
2023-05-01T12:50:42.718Z,15.50
2023-05-01T12:53:10.957Z,15.18
2023-05-01T12:57:16.070Z,15.46
2023-05-01T12:59:56.219Z,15.71
2023-05-01T13:02:26.031Z,15.83
2023-05-01T13:03:38.517Z,15.72
2023-05-01T13:04:49.988Z,15.79
2023-05-01T13:06:05.041Z,15.87
2023-05-01T13:08:37.215Z,16.11
2023-05-01T13:09:59.347Z,16.05
2023-05-01T13:11:14.909Z,16.13
2023-05-01T13:13:42.668Z,16.30
2023-05-01T13:16:12.824Z,16.12
2023-05-01T13:17:32.870Z,16.02
2023-05-01T13:18:47.681Z,16.13
2023-05-01T13:20:02.512Z,15.96
2023-05-01T13:21:14.258Z,16.07
2023-05-01T13:23:58.129Z,16.02
2023-05-01T13:26:36.124Z,16.13
2023-05-01T13:29:07.681Z,16.17
2023-05-01T13:31:44.280Z,16.02
2023-05-01T13:34:10.804Z,16.10
2023-05-01T13:36:40.976Z,16.12
2023-05-01T13:39:05.274Z,16.06
2023-05-01T13:41:35.064Z,15.94
2023-05-01T13:42:44.773Z,15.85
2023-05-01T13:45:22.079Z,16.13
2023-05-01T13:47:48.887Z,16.12
2023-05-01T13:50:17.694Z,16.17
2023-05-01T13:52:44.031Z,16.10
2023-05-01T13:55:13.142Z,15.97
2023-05-01T13:56:22.312Z,15.77
2023-05-01T13:57:31.517Z,15.91
2023-05-01T13:59:55.934Z,16.04
2023-05-01T14:02:34.341Z,16.19
2023-05-01T14:03:44.069Z,16.13
2023-05-01T14:06:16.405Z,16.23
2023-05-01T14:08:42.667Z,15.94
2023-05-01T14:11:13.475Z,16.13
2023-05-01T14:13:45.292Z,16.22
2023-05-01T14:16:24.682Z,16.15
2023-05-01T14:18:55.884Z,16.22
2023-05-01T14:21:23.369Z,16.31
2023-05-01T14:24:04.948Z,16.32
2023-05-01T14:26:44.087Z,16.39
2023-05-01T14:30:42.225Z,16.38
2023-05-01T14:33:11.905Z,16.28
2023-05-01T14:34:21.103Z,16.20
2023-05-01T14:36:45.709Z,16.30
2023-05-01T14:39:16.718Z,16.19
2023-05-01T14:41:42.546Z,16.07
2023-05-01T14:44:17.553Z,16.01
2023-05-01T14:46:49.726Z,16.11
2023-05-01T14:50:37.623Z,16.22
2023-05-01T14:53:01.490Z,16.19
2023-05-01T14:55:30.204Z,16.35
2023-05-01T14:57:58.130Z,16.44
2023-05-01T15:00:26.221Z,16.35
2023-05-01T15:02:52.162Z,16.31
2023-05-01T15:05:17.192Z,16.34
2023-05-01T15:07:42.676Z,16.39
2023-05-01T15:08:51.580Z,16.31
2023-05-01T15:10:00.670Z,16.29
2023-05-01T15:11:11.590Z,16.25
2023-05-01T15:13:36.886Z,16.40
2023-05-01T15:14:46.613Z,16.23
2023-05-01T15:15:56.055Z,16.29
2023-05-01T15:17:06.612Z,16.30
2023-05-01T15:19:30.269Z,16.29
2023-05-01T15:21:54.223Z,16.36
2023-05-01T15:24:22.717Z,16.24
2023-05-01T15:26:47.515Z,16.29
2023-05-01T15:29:12.087Z,16.33
2023-05-01T15:31:37.302Z,16.02
2023-05-01T15:32:46.894Z,16.04
2023-05-01T15:33:55.596Z,16.12
2023-05-01T15:36:20.137Z,16.28
2023-05-01T15:38:47.268Z,16.27
2023-05-01T15:41:10.662Z,16.29
2023-05-01T15:43:36.455Z,16.22
2023-05-01T15:46:00.748Z,16.25
2023-05-01T15:48:25.849Z,16.23
2023-05-01T15:49:35.153Z,15.91
2023-05-01T15:51:58.915Z,15.75
2023-05-01T15:54:24.445Z,15.95
2023-05-01T15:56:49.399Z,15.97
2023-05-01T15:59:13.800Z,15.89
2023-05-01T16:01:38.744Z,15.90
2023-05-01T16:04:04.087Z,15.83
2023-05-01T16:06:33.417Z,15.85
2023-05-01T16:09:04.540Z,15.92
2023-05-01T16:11:30.669Z,15.76
2023-05-01T16:13:55.411Z,15.88
2023-05-01T16:16:26.662Z,15.99
2023-05-01T16:18:59.380Z,15.99
2023-05-01T16:21:28.325Z,15.92
2023-05-01T16:24:18.166Z,16.01
2023-05-01T16:26:43.760Z,16.04
2023-05-01T16:27:52.744Z,15.72
2023-05-01T16:30:22.706Z,15.79
2023-05-01T16:32:56.704Z,15.68
2023-05-01T16:35:27.357Z,15.61
2023-05-01T16:37:55.932Z,15.67
2023-05-01T16:40:21.283Z,15.57
2023-05-01T16:42:53.005Z,15.56
2023-05-01T16:45:18.041Z,15.39
2023-05-01T16:47:44.534Z,15.51
2023-05-01T16:50:11.689Z,15.54
2023-05-01T16:52:35.921Z,15.57
2023-05-01T16:53:47.198Z,15.49
2023-05-01T16:54:56.961Z,15.42
2023-05-01T16:56:09.436Z,15.42
2023-05-01T16:58:33.290Z,15.41
2023-05-01T17:00:57.363Z,15.31
2023-05-01T17:03:24.508Z,15.38
2023-05-01T17:05:50.385Z,15.18
2023-05-01T17:08:14.179Z,15.07
2023-05-01T17:10:38.639Z,15.02
2023-05-01T17:13:04.860Z,15.05
2023-05-01T17:15:28.424Z,15.07
2023-05-01T17:16:39.709Z,14.99
2023-05-01T17:19:10.119Z,15.14
2023-05-01T17:21:35.289Z,15.13
2023-05-01T17:24:00.523Z,15.13
2023-05-01T17:26:25.985Z,15.18
2023-05-01T17:28:51.154Z,15.15
2023-05-01T17:30:00.465Z,15.07
2023-05-01T17:32:35.908Z,15.15
2023-05-01T17:33:38.474Z,15.04
2023-05-01T17:34:47.937Z,15.03
2023-05-01T17:37:20.676Z,15.03
2023-05-01T17:39:44.515Z,14.99
2023-05-01T17:42:10.462Z,14.96
2023-05-01T17:44:36.075Z,14.80
2023-05-01T17:47:00.532Z,14.86
2023-05-01T17:49:25.082Z,14.86
2023-05-01T17:51:49.024Z,14.86
2023-05-01T17:52:59.486Z,14.75
2023-05-01T17:54:08.606Z,14.67
2023-05-01T17:55:18.671Z,14.62
2023-05-01T17:57:43.755Z,14.62
2023-05-01T17:58:53.566Z,14.57
2023-05-01T18:00:04.656Z,14.52
2023-05-01T18:01:15.366Z,14.56
2023-05-01T18:03:40.147Z,14.74
2023-05-01T18:06:05.661Z,14.74
2023-05-01T18:07:14.436Z,14.56
2023-05-01T18:09:41.107Z,14.58
2023-05-01T18:12:06.003Z,14.58
2023-05-01T18:14:31.521Z,14.41
2023-05-01T18:16:56.415Z,14.38
2023-05-01T18:19:20.268Z,14.28
2023-05-01T18:21:44.487Z,14.30
2023-05-01T18:22:54.950Z,14.23
2023-05-01T18:25:19.977Z,14.31
2023-05-01T18:27:46.681Z,14.13
2023-05-01T18:30:10.970Z,14.13
2023-05-01T18:31:21.574Z,13.96
2023-05-01T18:32:46.136Z,14.04
2023-05-01T18:34:57.326Z,14.18
2023-05-01T18:37:23.093Z,14.19
2023-05-01T18:39:46.454Z,14.20
2023-05-01T18:42:10.159Z,14.24
2023-05-01T18:44:34.110Z,14.27
2023-05-01T18:46:58.833Z,14.16
2023-05-01T18:49:24.929Z,14.17
2023-05-01T18:51:51.301Z,14.07
2023-05-01T18:54:17.671Z,14.04
2023-05-01T18:56:41.434Z,13.91
2023-05-01T18:59:05.564Z,13.90
2023-05-01T19:01:32.892Z,13.76
2023-05-01T19:04:00.640Z,13.84
2023-05-01T19:06:28.939Z,13.70
2023-05-01T19:08:54.403Z,13.72
2023-05-01T19:11:19.499Z,13.56
2023-05-01T19:13:47.177Z,13.57
2023-05-01T19:16:13.510Z,13.57
2023-05-01T19:18:39.725Z,13.56
2023-05-01T19:21:04.875Z,13.45
2023-05-01T19:23:31.361Z,13.52
2023-05-01T19:25:55.025Z,13.43
2023-05-01T19:28:19.460Z,13.51
2023-05-01T19:30:43.566Z,13.49
2023-05-01T19:33:11.891Z,13.57
2023-05-01T19:35:55.734Z,13.47
2023-05-01T19:38:20.113Z,13.54
2023-05-01T19:40:45.260Z,13.56
2023-05-01T19:43:13.566Z,13.61
2023-05-01T19:46:45.665Z,13.51
2023-05-01T19:49:10.945Z,13.53
2023-05-01T19:51:36.040Z,13.40
2023-05-01T19:54:01.313Z,13.40
2023-05-01T19:56:27.846Z,13.39
2023-05-01T19:58:54.558Z,13.33
2023-05-01T20:01:21.437Z,13.32
2023-05-01T20:02:30.724Z,13.20
2023-05-01T20:04:54.972Z,13.37
2023-05-01T20:06:05.785Z,13.25
2023-05-01T20:07:14.590Z,13.27
2023-05-01T20:09:39.400Z,13.37
2023-05-01T20:10:49.268Z,13.25
2023-05-01T20:13:13.864Z,13.34
2023-05-01T20:15:39.276Z,13.33
2023-05-01T20:16:52.535Z,13.21
2023-05-01T20:19:17.828Z,13.23
2023-05-01T20:21:41.556Z,13.24
2023-05-01T20:22:52.830Z,13.17
2023-05-01T20:24:01.924Z,13.18
2023-05-01T20:26:27.174Z,13.30
2023-05-01T20:28:53.864Z,13.36
2023-05-01T20:30:02.786Z,13.24
2023-05-01T20:32:27.791Z,13.28
2023-05-01T20:34:55.025Z,13.11
2023-05-01T20:36:06.728Z,13.03
2023-05-01T20:37:16.436Z,12.95
2023-05-01T20:39:41.907Z,13.10
2023-05-01T20:42:07.180Z,12.97
2023-05-01T20:43:16.326Z,12.90
2023-05-01T20:44:26.971Z,12.93
2023-05-01T20:46:52.439Z,12.99
2023-05-01T20:49:17.163Z,13.00
2023-05-01T20:50:26.753Z,12.94
2023-05-01T20:51:36.123Z,12.96
2023-05-01T20:54:00.466Z,13.15
2023-05-01T20:55:11.649Z,13.05
2023-05-01T20:56:20.762Z,13.06
2023-05-01T20:57:29.719Z,13.05
2023-05-01T20:59:57.289Z,13.01
2023-05-01T21:01:07.365Z,12.91
2023-05-01T21:03:32.961Z,12.96
2023-05-01T21:04:43.699Z,12.90
2023-05-01T21:05:53.115Z,12.92
2023-05-01T21:08:16.757Z,13.03
2023-05-01T21:10:41.086Z,13.02
2023-05-01T21:11:50.271Z,12.92
2023-05-01T21:14:15.898Z,13.05
2023-05-01T21:15:27.500Z,12.84
2023-05-01T21:16:37.879Z,12.85
2023-05-01T21:17:46.665Z,12.88
2023-05-01T21:20:15.522Z,13.04
2023-05-01T21:21:26.454Z,12.93
2023-05-01T21:23:51.455Z,12.96
2023-05-01T21:25:00.077Z,12.86
2023-05-01T21:27:26.945Z,12.85
2023-05-01T21:29:59.137Z,12.84
2023-05-01T21:33:50.425Z,12.77
2023-05-01T21:36:18.881Z,12.73
2023-05-01T21:37:28.966Z,12.59
2023-05-01T21:38:39.684Z,12.57
2023-05-01T21:39:49.748Z,12.45
2023-05-01T21:42:15.541Z,12.51
2023-05-01T21:43:25.083Z,12.39
2023-05-01T21:44:36.063Z,12.39
2023-05-01T21:45:47.078Z,12.37
2023-05-01T21:48:15.974Z,12.50
2023-05-01T21:49:31.741Z,12.40
2023-05-01T21:53:16.849Z,12.49
2023-05-01T21:55:45.985Z,12.49
2023-05-01T21:58:24.267Z,12.44
2023-05-01T22:00:51.743Z,12.43
2023-05-01T22:03:24.373Z,12.42
2023-05-01T22:04:34.335Z,12.30
2023-05-01T22:27:51.976Z,12.43
2023-05-01T22:29:01.739Z,12.30
2023-05-01T22:31:27.530Z,12.33
2023-05-01T22:33:52.971Z,12.33
2023-05-01T22:36:18.760Z,12.27
2023-05-01T22:38:43.441Z,12.30
2023-05-01T22:41:09.978Z,12.26
2023-05-01T22:43:34.783Z,12.22
2023-05-01T22:46:01.013Z,12.19
2023-05-01T22:48:26.405Z,12.18
2023-05-01T22:49:37.840Z,12.05
2023-05-01T22:52:03.269Z,12.18
2023-05-01T22:53:12.201Z,12.08
2023-05-01T22:54:22.005Z,12.05
2023-05-01T22:55:31.240Z,12.05
2023-05-01T22:57:56.326Z,12.06
2023-05-01T22:59:07.219Z,11.92
2023-05-01T23:01:32.464Z,12.07
2023-05-01T23:03:58.134Z,11.98
2023-05-01T23:06:24.046Z,11.92
2023-05-01T23:08:54.266Z,11.85
2023-05-01T23:11:20.636Z,11.85
2023-05-01T23:13:48.314Z,11.86
2023-05-01T23:16:18.379Z,11.86
2023-05-01T23:18:46.481Z,11.87
2023-05-01T23:21:19.402Z,11.82
2023-05-01T23:23:47.411Z,11.80
2023-05-01T23:24:57.200Z,11.69
2023-05-01T23:27:22.509Z,11.77
2023-05-01T23:28:32.687Z,11.66
2023-05-01T23:31:01.955Z,11.82
2023-05-01T23:33:33.949Z,11.87
2023-05-01T23:34:48.259Z,11.80
2023-05-01T23:35:58.803Z,11.79
2023-05-01T23:37:08.111Z,11.83
2023-05-01T23:38:19.209Z,11.84
2023-05-01T23:40:46.990Z,12.01
2023-05-01T23:43:12.610Z,12.08
2023-05-01T23:45:38.950Z,12.09
2023-05-01T23:46:48.257Z,11.94
2023-05-01T23:49:14.452Z,11.98
2023-05-01T23:50:24.731Z,11.88
2023-05-01T23:51:33.643Z,11.90
2023-05-01T23:52:44.452Z,11.91
2023-05-01T23:53:53.904Z,11.91
2023-05-01T23:55:03.127Z,11.94
2023-05-01T23:56:12.469Z,11.95
2023-05-01T23:57:23.215Z,11.96
2023-05-01T23:58:31.547Z,11.97
2023-05-01T23:59:42.158Z,11.98
